Time,TemperatureF,DewpointF,PressureIn,WindDirection,WindDirectionDegrees,WindSpeedMPH,WindSpeedGustMPH,Humidity,HourlyPrecipIn,Conditions,Clouds,dailyrainin,SoftwareType,DateUTC
2013-12-04 00:04:00,29.5,28.0,29.91,North,0,0.0,-999.0,94,-99.99,,,0.00,Acu-Link.com,2013-12-04 05:04:00,
2013-12-04 00:19:00,29.3,27.8,29.91,North,0,0.0,-999.0,94,-99.99,,,0.00,Acu-Link.com,2013-12-04 05:19:00,
2013-12-04 00:34:00,29.3,27.8,29.91,North,0,1.1,-999.0,94,-99.99,,,0.00,Acu-Link.com,2013-12-04 05:34:00,
2013-12-04 00:49:00,29.3,27.8,29.92,North,0,0.0,-999.0,94,-99.99,,,0.00,Acu-Link.com,2013-12-04 05:49:00,
2013-12-04 01:05:00,29.3,27.8,29.91,North,0,0.0,-999.0,94,-99.99,,,0.00,Acu-Link.com,2013-12-04 06:05:00,
2013-12-04 01:20:00,29.3,27.8,29.91,North,0,0.0,-999.0,94,-99.99,,,0.00,Acu-Link.com,2013-12-04 06:20:00,
2013-12-04 01:35:00,29.3,27.8,29.92,North,0,0.0,-999.0,94,-99.99,,,0.00,Acu-Link.com,2013-12-04 06:35:00,
2013-12-04 01:50:00,29.5,28.0,29.92,North,0,0.0,-999.0,94,-99.99,,,0.00,Acu-Link.com,2013-12-04 06:50:00,
2013-12-04 02:06:00,29.7,28.2,29.93,North,0,0.0,-999.0,94,-99.99,,,0.00,Acu-Link.com,2013-12-04 07:06:00,
2013-12-04 02:21:00,29.7,28.2,29.93,North,0,0.0,-999.0,94,-99.99,,,0.00,Acu-Link.com,2013-12-04 07:21:00,
2013-12-04 02:36:00,29.7,28.2,29.94,North,0,0.0,-999.0,94,-99.99,,,0.00,Acu-Link.com,2013-12-04 07:36:00,
2013-12-04 02:52:00,30.2,28.7,29.94,North,0,0.0,-999.0,94,-99.99,,,0.00,Acu-Link.com,2013-12-04 07:52:00,
2013-12-04 03:07:00,30.4,28.9,29.94,North,0,1.1,-999.0,94,-99.99,,,0.00,Acu-Link.com,2013-12-04 08:07:00,
2013-12-04 03:22:00,30.6,29.1,29.94,North,0,0.0,-999.0,94,-99.99,,,0.00,Acu-Link.com,2013-12-04 08:22:00,
2013-12-04 03:37:00,30.7,29.2,29.94,North,0,0.0,-999.0,94,-99.99,,,0.00,Acu-Link.com,2013-12-04 08:37:00,
2013-12-04 03:52:00,30.9,29.4,29.94,North,0,0.0,-999.0,94,-99.99,,,0.00,Acu-Link.com,2013-12-04 08:52:00,
2013-12-04 04:07:00,31.1,29.6,29.94,North,0,0.0,-999.0,94,-99.99,,,0.00,Acu-Link.com,2013-12-04 09:07:00,
2013-12-04 04:23:00,31.1,29.6,29.93,North,0,0.0,-999.0,94,-99.99,,,0.00,Acu-Link.com,2013-12-04 09:23:00,
2013-12-04 04:38:00,30.9,29.4,29.93,North,0,0.0,-999.0,94,-99.99,,,0.00,Acu-Link.com,2013-12-04 09:38:00,
2013-12-04 04:53:00,30.6,29.1,29.94,North,0,0.0,-999.0,94,-99.99,,,0.00,Acu-Link.com,2013-12-04 09:53:00,
2013-12-04 05:08:00,30.2,28.7,29.92,North,0,0.0,-999.0,94,-99.99,,,0.00,Acu-Link.com,2013-12-04 10:08:00,
2013-12-04 05:24:00,29.8,28.3,29.92,North,0,0.0,-999.0,94,-99.99,,,0.00,Acu-Link.com,2013-12-04 10:24:00,
2013-12-04 05:39:00,29.7,28.2,29.92,North,0,0.0,-999.0,94,-99.99,,,0.00,Acu-Link.com,2013-12-04 10:39:00,
2013-12-04 05:54:00,29.3,27.8,29.92,North,0,0.0,-999.0,94,-99.99,,,0.00,Acu-Link.com,2013-12-04 10:54:00,
2013-12-04 06:09:00,28.9,27.4,29.92,North,0,0.0,-999.0,94,-99.99,,,0.00,Acu-Link.com,2013-12-04 11:09:00,
2013-12-04 06:24:00,28.8,27.3,29.93,North,0,0.0,-999.0,94,-99.99,,,0.00,Acu-Link.com,2013-12-04 11:24:00,
2013-12-04 06:39:00,28.6,27.1,29.93,North,0,0.0,-999.0,94,-99.99,,,0.00,Acu-Link.com,2013-12-04 11:39:00,
2013-12-04 06:55:00,28.9,28.2,29.93,North,0,0.0,-999.0,97,-99.99,,,0.00,Acu-Link.com,2013-12-04 11:55:00,
2013-12-04 07:10:00,28.9,28.2,29.94,North,0,0.0,-999.0,97,-99.99,,,0.00,Acu-Link.com,2013-12-04 12:10:00,
2013-12-04 07:25:00,28.9,28.2,29.94,North,0,0.0,-999.0,97,-99.99,,,0.00,Acu-Link.com,2013-12-04 12:25:00,
2013-12-04 07:40:00,29.1,28.4,29.94,North,0,0.0,-999.0,97,-99.99,,,0.00,Acu-Link.com,2013-12-04 12:40:00,
2013-12-04 07:56:00,29.1,28.4,29.96,North,0,0.0,-999.0,97,-99.99,,,0.00,Acu-Link.com,2013-12-04 12:56:00,
2013-12-04 08:11:00,29.1,28.4,29.96,North,0,0.0,-999.0,97,-99.99,,,0.00,Acu-Link.com,2013-12-04 13:11:00,
2013-12-04 08:26:00,29.5,28.8,29.96,North,0,1.1,-999.0,97,-99.99,,,0.00,Acu-Link.com,2013-12-04 13:26:00,
2013-12-04 08:41:00,29.5,28.8,29.97,North,0,0.0,-999.0,97,-99.99,,,0.00,Acu-Link.com,2013-12-04 13:41:00,
2013-12-04 08:56:00,30.0,29.3,29.97,North,0,1.1,-999.0,97,-99.99,,,0.00,Acu-Link.com,2013-12-04 13:56:00,
2013-12-04 09:12:00,30.7,29.7,29.98,North,0,0.0,-999.0,96,-99.99,,,0.00,Acu-Link.com,2013-12-04 14:12:00,
2013-12-04 09:27:00,31.5,30.5,29.99,North,0,0.0,-999.0,96,-99.99,,,0.00,Acu-Link.com,2013-12-04 14:27:00,
2013-12-04 09:42:00,32.4,31.1,29.99,North,0,0.0,-999.0,95,-99.99,,,0.00,Acu-Link.com,2013-12-04 14:42:00,
2013-12-04 09:57:00,32.9,31.6,30.00,North,0,2.2,-999.0,95,-99.99,,,0.00,Acu-Link.com,2013-12-04 14:57:00,
2013-12-04 10:12:00,34.0,32.7,30.01,North,0,0.0,-999.0,95,-99.99,,,0.00,Acu-Link.com,2013-12-04 15:12:00,
2013-12-04 10:28:00,34.7,33.2,30.01,North,0,2.2,-999.0,94,-99.99,,,0.00,Acu-Link.com,2013-12-04 15:28:00,
2013-12-04 10:43:00,35.8,34.0,30.00,North,0,1.7,-999.0,93,-99.99,,,0.00,Acu-Link.com,2013-12-04 15:43:00,
2013-12-04 10:58:00,37.6,35.5,29.99,North,0,1.1,-999.0,92,-99.99,,,0.00,Acu-Link.com,2013-12-04 15:58:00,
2013-12-04 11:14:00,39.4,36.1,29.98,North,0,1.1,-999.0,88,-99.99,,,0.00,Acu-Link.com,2013-12-04 16:14:00,
2013-12-04 11:29:00,41.2,36.4,29.96,North,0,0.0,-999.0,83,-99.99,,,0.00,Acu-Link.com,2013-12-04 16:29:00,
2013-12-04 11:44:00,41.9,36.2,29.95,North,0,0.0,-999.0,80,-99.99,,,0.00,Acu-Link.com,2013-12-04 16:44:00,
2013-12-04 11:59:00,43.2,36.5,29.94,North,0,1.1,-999.0,77,-99.99,,,0.00,Acu-Link.com,2013-12-04 16:59:00,
2013-12-04 12:29:00,46.2,37.3,29.93,NNW,337,2.7,-999.0,71,-99.99,,,0.00,Acu-Link.com,2013-12-04 17:29:00,
2013-12-04 12:44:00,47.3,37.7,29.92,NNW,337,0.0,-999.0,69,-99.99,,,0.00,Acu-Link.com,2013-12-04 17:44:00,
2013-12-04 13:00:00,47.3,37.7,29.92,NNW,337,0.0,-999.0,69,-99.99,,,0.00,Acu-Link.com,2013-12-04 18:00:00,
2013-12-04 13:15:00,48.6,37.8,29.92,NNW,337,0.0,-999.0,66,-99.99,,,0.00,Acu-Link.com,2013-12-04 18:15:00,
2013-12-04 13:30:00,49.1,37.8,29.91,NNW,337,0.0,-999.0,65,-99.99,,,0.00,Acu-Link.com,2013-12-04 18:30:00,
2013-12-04 13:45:00,50.0,38.7,29.92,West,270,2.7,-999.0,65,-99.99,,,0.00,Acu-Link.com,2013-12-04 18:45:00,
2013-12-04 14:00:00,51.1,38.5,29.91,West,270,2.2,-999.0,62,-99.99,,,0.00,Acu-Link.com,2013-12-04 19:00:00,
2013-12-04 14:15:00,51.3,38.3,29.92,West,270,2.7,-999.0,61,-99.99,,,0.00,Acu-Link.com,2013-12-04 19:15:00,
2013-12-04 14:30:00,50.5,38.4,29.91,West,270,2.2,-999.0,63,-99.99,,,0.00,Acu-Link.com,2013-12-04 19:30:00,
2013-12-04 14:46:00,50.4,38.7,29.91,South,180,0.0,-999.0,64,-99.99,,,0.00,Acu-Link.com,2013-12-04 19:46:00,
2013-12-04 15:01:00,50.4,39.5,29.92,South,180,0.0,-999.0,66,-99.99,,,0.00,Acu-Link.com,2013-12-04 20:01:00,
2013-12-04 15:16:00,50.0,39.5,29.91,South,180,0.0,-999.0,67,-99.99,,,0.00,Acu-Link.com,2013-12-04 20:16:00,
2013-12-04 15:32:00,50.0,39.5,29.92,South,180,0.0,-999.0,67,-99.99,,,0.00,Acu-Link.com,2013-12-04 20:32:00,
2013-12-04 15:47:00,49.1,39.0,29.92,South,180,0.0,-999.0,68,-99.99,,,0.00,Acu-Link.com,2013-12-04 20:47:00,
2013-12-04 16:02:00,48.4,38.7,29.91,South,180,0.0,-999.0,69,-99.99,,,0.00,Acu-Link.com,2013-12-04 21:02:00,
2013-12-04 16:18:00,47.1,37.8,29.91,South,180,0.0,-999.0,70,-99.99,,,0.00,Acu-Link.com,2013-12-04 21:18:00,
2013-12-04 16:33:00,46.0,37.1,29.91,South,180,0.0,-999.0,71,-99.99,,,0.00,Acu-Link.com,2013-12-04 21:33:00,
2013-12-04 16:48:00,44.6,36.8,29.92,South,180,0.0,-999.0,74,-99.99,,,0.00,Acu-Link.com,2013-12-04 21:48:00,
2013-12-04 17:04:00,43.7,36.3,29.92,South,180,0.0,-999.0,75,-99.99,,,0.00,Acu-Link.com,2013-12-04 22:04:00,
2013-12-04 17:19:00,42.8,36.4,29.93,South,180,0.0,-999.0,78,-99.99,,,0.00,Acu-Link.com,2013-12-04 22:19:00,
2013-12-04 17:34:00,42.3,36.3,29.92,South,180,0.0,-999.0,79,-99.99,,,0.00,Acu-Link.com,2013-12-04 22:34:00,
2013-12-04 17:49:00,41.7,36.0,29.93,South,180,0.0,-999.0,80,-99.99,,,0.00,Acu-Link.com,2013-12-04 22:49:00,
2013-12-04 18:05:00,41.2,35.8,29.94,South,180,0.0,-999.0,81,-99.99,,,0.00,Acu-Link.com,2013-12-04 23:05:00,
2013-12-04 18:20:00,40.6,35.5,29.95,South,180,0.0,-999.0,82,-99.99,,,0.00,Acu-Link.com,2013-12-04 23:20:00,
2013-12-04 18:35:00,40.3,35.6,29.95,South,180,0.0,-999.0,83,-99.99,,,0.00,Acu-Link.com,2013-12-04 23:35:00,
2013-12-04 18:50:00,39.6,35.2,29.95,South,180,0.0,-999.0,84,-99.99,,,0.00,Acu-Link.com,2013-12-04 23:50:00,
2013-12-04 19:05:00,39.2,34.8,29.95,South,180,0.0,-999.0,84,-99.99,,,0.00,Acu-Link.com,2013-12-05 00:05:00,
2013-12-04 19:21:00,39.0,34.6,29.96,South,180,0.0,-999.0,84,-99.99,,,0.00,Acu-Link.com,2013-12-05 00:21:00,
2013-12-04 19:36:00,38.8,34.7,29.95,South,180,0.0,-999.0,85,-99.99,,,0.00,Acu-Link.com,2013-12-05 00:36:00,
2013-12-04 19:51:00,39.2,35.1,29.95,South,180,0.0,-999.0,85,-99.99,,,0.00,Acu-Link.com,2013-12-05 00:51:00,
2013-12-04 20:06:00,39.6,35.5,29.95,South,180,0.0,-999.0,85,-99.99,,,0.00,Acu-Link.com,2013-12-05 01:06:00,
2013-12-04 20:21:00,39.7,35.6,29.94,South,180,0.0,-999.0,85,-99.99,,,0.00,Acu-Link.com,2013-12-05 01:21:00,
2013-12-04 20:37:00,39.9,35.8,29.94,South,180,0.0,-999.0,85,-99.99,,,0.00,Acu-Link.com,2013-12-05 01:37:00,
2013-12-04 20:52:00,40.3,36.2,29.95,South,180,0.0,-999.0,85,-99.99,,,0.00,Acu-Link.com,2013-12-05 01:52:00,
2013-12-04 21:07:00,40.6,36.2,29.95,South,180,0.0,-999.0,84,-99.99,,,0.00,Acu-Link.com,2013-12-05 02:07:00,
2013-12-04 21:23:00,41.0,36.5,29.93,South,180,0.0,-999.0,84,-99.99,,,0.00,Acu-Link.com,2013-12-05 02:23:00,
2013-12-04 21:38:00,41.0,36.5,29.94,South,180,0.0,-999.0,84,-99.99,,,0.00,Acu-Link.com,2013-12-05 02:38:00,
2013-12-04 21:53:00,41.4,36.9,29.94,South,180,0.0,-999.0,84,-99.99,,,0.00,Acu-Link.com,2013-12-05 02:53:00,
2013-12-04 22:08:00,41.4,36.9,29.94,South,180,0.0,-999.0,84,-99.99,,,0.00,Acu-Link.com,2013-12-05 03:08:00,
2013-12-04 22:24:00,41.5,37.0,29.94,South,180,0.0,-999.0,84,-99.99,,,0.00,Acu-Link.com,2013-12-05 03:24:00,
2013-12-04 22:39:00,41.5,37.0,29.96,South,180,0.0,-999.0,84,-99.99,,,0.00,Acu-Link.com,2013-12-05 03:39:00,
2013-12-04 22:54:00,41.7,37.2,29.95,South,180,0.0,-999.0,84,-99.99,,,0.00,Acu-Link.com,2013-12-05 03:54:00,
2013-12-04 23:09:00,42.1,37.6,29.96,South,180,0.0,-999.0,84,-99.99,,,0.00,Acu-Link.com,2013-12-05 04:09:00,
2013-12-04 23:25:00,42.3,37.8,29.95,South,180,0.0,-999.0,84,-99.99,,,0.00,Acu-Link.com,2013-12-05 04:25:00,
2013-12-04 23:40:00,42.4,37.9,29.95,South,180,0.0,-999.0,84,-99.99,,,0.00,Acu-Link.com,2013-12-05 04:40:00,
2013-12-04 23:55:00,42.6,38.1,29.94,South,180,0.0,-999.0,84,-99.99,,,0.00,Acu-Link.com,2013-12-05 04:55:00,